createdAt,value
2023-01-19T00:07:40.782Z,-3.37
2023-01-19T00:12:49.768Z,-3.31
2023-01-19T00:17:58.710Z,-3.44
2023-01-19T00:23:07.750Z,-3.25
2023-01-19T00:28:16.880Z,-3.12
2023-01-19T00:33:25.898Z,-3.12
2023-01-19T00:38:34.939Z,-3.06
2023-01-19T00:43:44.023Z,-3
2023-01-19T00:48:52.961Z,-3.19
2023-01-19T00:59:11.105Z,-3.37
2023-01-19T01:04:20.137Z,-3.37
2023-01-19T01:09:29.159Z,-3.31
2023-01-19T01:14:38.425Z,-3
2023-01-19T01:19:47.409Z,-2.75
2023-01-19T01:24:56.561Z,-2.56
2023-01-19T01:35:14.595Z,-2.44
2023-01-19T01:40:23.692Z,-2.37
2023-01-19T01:45:32.808Z,-2.37
2023-01-19T01:50:41.608Z,-2.44
2023-01-19T01:55:50.545Z,-2.62
2023-01-19T02:00:59.661Z,-2.69
2023-01-19T02:06:08.414Z,-2.75
2023-01-19T02:11:17.441Z,-2.69
2023-01-19T02:16:26.740Z,-2.62
2023-01-19T02:21:35.753Z,-2.56
2023-01-19T02:26:44.689Z,-2.56
2023-01-19T02:31:53.586Z,-2.69
2023-01-19T02:37:02.474Z,-2.81
2023-01-19T02:42:11.274Z,-2.87
2023-01-19T02:47:20.519Z,-2.81
2023-01-19T02:52:29.739Z,-2.87
2023-01-19T02:57:38.605Z,-3
2023-01-19T03:02:47.819Z,-3
2023-01-19T03:07:56.784Z,-2.94
2023-01-19T03:13:05.685Z,-3
2023-01-19T03:18:14.873Z,-3.12
2023-01-19T03:23:23.838Z,-2.87
2023-01-19T03:28:32.865Z,-2.5
2023-01-19T03:33:41.946Z,-2.25
2023-01-19T03:38:51.127Z,-2
2023-01-19T03:44:02.161Z,-1.81
2023-01-19T03:49:11.383Z,-1.69
2023-01-19T03:54:20.525Z,-1.56
2023-01-19T03:59:29.590Z,-1.5
2023-01-19T04:04:38.653Z,-1.44
2023-01-19T04:09:47.484Z,-1.69
2023-01-19T04:14:56.371Z,-1.94
2023-01-19T04:20:05.360Z,-2.25
2023-01-19T04:25:14.333Z,-2.44
2023-01-19T04:30:23.325Z,-2.56
2023-01-19T04:50:26.245Z,-3
2023-01-19T04:55:35.078Z,-3.12
2023-01-19T05:00:44.143Z,-3.06
2023-01-19T05:05:53.198Z,-2.94
2023-01-19T05:11:02.209Z,-2.56
2023-01-19T05:16:11.286Z,-2.37
2023-01-19T05:21:20.430Z,-2.31
2023-01-19T05:26:29.467Z,-2.31
2023-01-19T05:31:38.449Z,-2.19
2023-01-19T05:36:47.439Z,-2.37
2023-01-19T05:41:56.289Z,-2.5
2023-01-19T05:47:05.284Z,-2.56
2023-01-19T05:52:14.421Z,-2.56
2023-01-19T05:57:23.476Z,-2.81
2023-01-19T06:02:32.442Z,-2.94
2023-01-19T06:07:41.466Z,-3.06
2023-01-19T06:12:50.459Z,-3
2023-01-19T06:17:59.543Z,-3
2023-01-19T06:23:08.231Z,-2.81
2023-01-19T06:28:17.151Z,-2.81
2023-01-19T06:33:26.226Z,-2.87
2023-01-19T06:38:35.140Z,-2.81
2023-01-19T06:43:44.120Z,-2.87
2023-01-19T06:48:53.072Z,-2.62
2023-01-19T06:54:02.237Z,-2.37
2023-01-19T06:59:11.120Z,-2.12
2023-01-19T07:04:20.178Z,-1.75
2023-01-19T07:09:29.377Z,-1.56
2023-01-19T07:14:38.471Z,-1.37
2023-01-19T07:19:47.470Z,-1.19
2023-01-19T07:24:56.472Z,-1.12
2023-01-19T07:30:05.487Z,-1
2023-01-19T07:35:14.501Z,-0.88
2023-01-19T07:40:24.079Z,-0.75
2023-01-19T07:45:32.645Z,-0.75
2023-01-19T07:50:41.589Z,-0.69
2023-01-19T08:01:00.012Z,-0.69
2023-01-19T08:06:08.964Z,-0.56
2023-01-19T08:11:18.195Z,-0.5
2023-01-19T08:16:27.210Z,-0.37
2023-01-19T08:21:36.033Z,-0.31
2023-01-19T08:26:45.018Z,-0.25
2023-01-19T08:31:54.253Z,-0.13
2023-01-19T08:37:02.972Z,-0.06
2023-01-19T08:42:11.953Z,-0.06
2023-01-19T08:47:21.044Z,-0.06
2023-01-19T08:52:30.089Z,0
2023-01-19T08:57:39.073Z,0.19
2023-01-19T09:02:48.476Z,0.37
2023-01-19T09:07:57.323Z,0.5
2023-01-19T09:13:09.145Z,0.62
2023-01-19T09:18:18.606Z,0.62
2023-01-19T09:23:27.488Z,0.62
2023-01-19T09:33:45.898Z,0.69
2023-01-19T09:38:57.514Z,0.75
2023-01-19T09:49:15.804Z,0.69
2023-01-19T09:59:33.761Z,0.81
2023-01-19T10:04:42.703Z,0.81
2023-01-19T10:15:00.953Z,1.56
2023-01-19T10:20:09.871Z,1.62
2023-01-19T10:25:19.155Z,1.87
2023-01-19T10:30:28.420Z,1.87
2023-01-19T10:35:37.678Z,2.25
2023-01-19T10:40:46.354Z,2.25
2023-01-19T10:45:55.839Z,2.44
2023-01-19T10:51:04.277Z,2.06
2023-01-19T10:56:13.155Z,2.25
2023-01-19T11:01:22.260Z,2.44
2023-01-19T11:06:30.873Z,2.25
2023-01-19T11:11:39.664Z,2.12
2023-01-19T11:16:48.583Z,2.19
2023-01-19T11:21:57.696Z,2.25
2023-01-19T11:27:09.623Z,2.37
2023-01-19T11:32:18.626Z,2.5
2023-01-19T11:37:27.807Z,2.75
2023-01-19T11:42:36.666Z,2.69
2023-01-19T11:52:57.714Z,2.62
2023-01-19T11:58:06.680Z,2.5
2023-01-19T12:03:15.810Z,2.37
2023-01-19T12:08:24.500Z,2.5
2023-01-19T12:13:33.597Z,2.62
2023-01-19T12:18:42.751Z,2.62
2023-01-19T12:23:51.738Z,2.69
2023-01-19T12:29:00.566Z,2.75
2023-01-19T12:34:09.440Z,2.75
2023-01-19T12:39:18.555Z,2.69
2023-01-19T12:44:27.480Z,2.69
2023-01-19T12:49:36.669Z,2.69
2023-01-19T12:54:45.774Z,2.69
2023-01-19T12:59:56.649Z,2.69
2023-01-19T13:05:05.640Z,2.62
2023-01-19T13:10:14.544Z,2.62
2023-01-19T13:15:23.308Z,2.56
2023-01-19T13:20:32.241Z,2.5
2023-01-19T13:25:41.354Z,2.56
2023-01-19T13:30:50.330Z,2.62
2023-01-19T13:35:59.305Z,2.56
2023-01-19T13:41:08.252Z,2.44
2023-01-19T13:46:17.151Z,2.31
2023-01-19T13:51:26.135Z,2.31
2023-01-19T13:56:35.031Z,2.37
2023-01-19T14:01:44.140Z,2.37
2023-01-19T14:06:53.307Z,2.44
2023-01-19T14:12:02.399Z,2.44
2023-01-19T14:17:11.309Z,2.5
2023-01-19T14:22:20.435Z,2.5
2023-01-19T14:27:29.429Z,2.5
2023-01-19T14:32:38.418Z,2.5
2023-01-19T14:37:47.278Z,2.5
2023-01-19T14:42:56.268Z,2.5
2023-01-19T14:48:05.173Z,2.5
2023-01-19T14:53:14.202Z,2.5
2023-01-19T14:58:23.204Z,2.44
2023-01-19T15:03:43.946Z,2.31
2023-01-19T15:08:40.937Z,2.25
2023-01-19T15:13:49.922Z,2.12
2023-01-19T15:18:58.907Z,2.12
2023-01-19T15:24:07.767Z,2.06
2023-01-19T15:34:26.566Z,2
2023-01-19T15:39:35.484Z,1.94
2023-01-19T15:44:44.756Z,1.87
2023-01-19T15:49:53.693Z,1.81
2023-01-19T15:55:02.671Z,1.75
2023-01-19T16:00:11.679Z,1.75
2023-01-19T16:05:21.591Z,1.81
2023-01-19T16:10:29.624Z,1.75
2023-01-19T16:15:38.619Z,1.69
2023-01-19T16:25:57.294Z,1.56
2023-01-19T16:31:06.157Z,1.44
2023-01-19T16:36:15.117Z,1.31
2023-01-19T16:41:24.110Z,1.25
2023-01-19T16:46:33.151Z,1.19
2023-01-19T16:51:42.198Z,1.12
2023-01-19T16:56:51.339Z,1.06
2023-01-19T17:02:00.677Z,1
2023-01-19T17:07:09.401Z,0.94
2023-01-19T17:12:18.317Z,0.81
2023-01-19T17:17:27.299Z,0.75
2023-01-19T17:22:36.297Z,0.69
2023-01-19T17:27:45.248Z,0.62
2023-01-19T17:32:54.116Z,0.56
2023-01-19T17:38:03.126Z,0.56
2023-01-19T17:43:12.196Z,0.5
2023-01-19T17:48:21.267Z,0.5
2023-01-19T17:53:30.253Z,0.44
2023-01-19T17:58:39.216Z,0.44
2023-01-19T18:03:48.326Z,0.5
2023-01-19T18:08:57.304Z,0.5
2023-01-19T18:14:06.235Z,0.44
2023-01-19T18:19:15.263Z,0.37
2023-01-19T18:24:24.247Z,0.37
2023-01-19T18:29:33.190Z,0.31
2023-01-19T18:34:42.212Z,0.37
2023-01-19T18:39:51.229Z,0.37
2023-01-19T18:45:00.238Z,0.44
2023-01-19T18:50:09.528Z,0.44
2023-01-19T18:55:18.383Z,0.44
2023-01-19T19:00:27.511Z,0.44
2023-01-19T19:05:36.349Z,0.44
2023-01-19T19:10:45.342Z,0.44
2023-01-19T19:15:54.428Z,0.44
2023-01-19T19:21:03.219Z,0.44
2023-01-19T19:26:12.491Z,0.44
2023-01-19T19:31:21.677Z,0.44
2023-01-19T19:36:30.649Z,0.44
2023-01-19T19:41:39.769Z,0.44
2023-01-19T19:46:48.852Z,0.44
2023-01-19T19:51:57.810Z,0.44
2023-01-19T19:57:06.759Z,0.44
2023-01-19T20:02:15.849Z,0.44
2023-01-19T20:07:24.785Z,0.44
2023-01-19T20:12:33.692Z,0.44
2023-01-19T20:17:42.958Z,0.37
2023-01-19T20:22:52.009Z,0.37
2023-01-19T20:28:01.082Z,0.31
2023-01-19T20:33:10.170Z,0.25
2023-01-19T20:38:19.154Z,0.19
2023-01-19T20:43:28.184Z,0.13
2023-01-19T20:48:37.298Z,0.06
2023-01-19T20:53:46.228Z,0.06
2023-01-19T20:58:55.411Z,0
2023-01-19T21:04:04.448Z,-0.06
2023-01-19T21:09:13.532Z,-0.06
2023-01-19T21:14:22.490Z,-0.06
2023-01-19T21:19:31.488Z,-0.06
2023-01-19T21:24:40.454Z,-0.06
2023-01-19T21:29:49.463Z,-0.13
2023-01-19T21:34:58.436Z,-0.13
2023-01-19T21:40:07.333Z,-0.13
2023-01-19T21:55:23.659Z,-0.13
2023-01-19T22:00:32.782Z,-0.06
2023-01-19T22:05:41.778Z,-0.06
2023-01-19T22:10:50.859Z,-0.06
2023-01-19T22:15:59.907Z,0
2023-01-19T22:21:09.182Z,-0.06
2023-01-19T22:26:18.159Z,-0.13
2023-01-19T22:31:27.336Z,-0.06
2023-01-19T22:36:36.410Z,-0.06
2023-01-19T22:41:45.792Z,-0.13
2023-01-19T22:46:54.537Z,-0.13
2023-01-19T22:52:03.511Z,-0.13
2023-01-19T22:57:12.448Z,-0.13
2023-01-19T23:02:21.738Z,-0.13
2023-01-19T23:07:30.527Z,-0.13
2023-01-19T23:12:39.675Z,-0.13
2023-01-19T23:17:48.662Z,-0.13
2023-01-19T23:22:57.621Z,-0.13
2023-01-19T23:28:06.953Z,-0.06
2023-01-19T23:33:15.764Z,-0.06
2023-01-19T23:38:24.829Z,-0.06
2023-01-19T23:43:33.811Z,-0.06
2023-01-19T23:48:42.640Z,0
2023-01-19T23:59:00.642Z,-0.06
